Time;durP1;ratioP1;P1;durP2;ratioP2;P2;SDS_P1;SDS_P2;PMS_P1;PMS_P2;Temp;Humidity;BMP_temperature;BMP_pressure;BME280_temperature;BME280_humidity;BME280_pressure;Samples;Min_cycle;Max_cycle;Signal;HPM_P1;HPM_P2
2023/07/29 00:00:47;;;;;;;2.30;2.10;;;;;;;-143.84;69.75;45073.81;4989782;28;20445;-58
2023/07/29 00:03:15;;;;;;;2.60;2.03;;;;;;;-143.84;69.08;45066.22;4989785;28;20455;-58
2023/07/29 00:05:42;;;;;;;1.80;1.50;;;;;;;-143.84;68.84;45083.34;4989450;28;20492;-58
2023/07/29 00:08:09;;;;;;;1.23;1.13;;;;;;;-143.84;69.19;45127.13;4989813;28;20854;-58
2023/07/29 00:10:38;;;;;;;2.20;2.07;;;;;;;-143.84;68.98;45098.56;4990089;28;21056;-58
2023/07/29 00:13:06;;;;;;;2.20;2.07;;;;;;;-143.84;69.43;45081.44;4989974;28;20881;-58
2023/07/29 00:15:33;;;;;;;3.47;1.70;;;;;;;-143.84;69.32;45075.72;4990051;28;20538;-58
2023/07/29 00:18:00;;;;;;;2.40;2.20;;;;;;;-143.84;69.86;45054.78;4989910;28;20449;-58
2023/07/29 00:20:27;;;;;;;1.70;1.60;;;;;;;-143.84;69.84;45104.28;4990106;28;21294;-58
2023/07/29 00:22:54;;;;;;;2.20;1.80;;;;;;;-143.84;69.48;45108.09;4989937;28;20448;-55
2023/07/29 00:25:22;;;;;;;3.40;1.93;;;;;;;-143.84;69.01;45115.72;4989772;28;21319;-55
2023/07/29 00:27:51;;;;;;;2.07;1.53;;;;;;;-143.84;69.00;45106.19;4989922;28;20514;-55
2023/07/29 00:30:18;;;;;;;1.73;1.63;;;;;;;-143.84;68.64;45098.56;4989648;28;20445;-56
2023/07/29 00:32:45;;;;;;;2.33;1.67;;;;;;;-143.84;68.46;45081.44;4989106;28;20436;-55
2023/07/29 00:35:12;;;;;;;1.87;1.67;;;;;;;-143.84;68.57;45073.81;4989573;28;20449;-55
2023/07/29 00:37:39;;;;;;;3.00;2.40;;;;;;;-143.84;68.23;45079.53;4989271;28;20511;-55
2023/07/29 00:40:15;;;;;;;1.90;1.33;;;;;;;-143.84;67.97;45094.78;4989326;28;20453;-55
2023/07/29 00:42:43;;;;;;;4.17;1.90;;;;;;;-143.84;67.84;45064.31;4989262;28;20988;-55
2023/07/29 00:45:11;;;;;;;2.00;1.90;;;;;;;-143.84;67.58;45098.56;4989272;28;20439;-55
2023/07/29 00:47:39;;;;;;;2.30;1.53;;;;;;;-143.84;67.27;45071.91;4989177;28;20551;-55
2023/07/29 00:50:08;;;;;;;3.77;1.50;;;;;;;-143.84;66.65;45090.97;4989259;28;20818;-55
2023/07/29 00:52:35;;;;;;;1.70;1.60;;;;;;;-143.84;66.38;45077.63;4989454;28;20512;-48
2023/07/29 00:55:02;;;;;;;7.73;1.70;;;;;;;-143.84;66.53;45083.34;4989224;28;20515;-48
2023/07/29 00:57:31;;;;;;;6.90;1.47;;;;;;;-143.84;65.99;45100.47;4989265;28;20455;-53
2023/07/29 00:59:58;;;;;;;1.70;1.50;;;;;;;-143.84;65.75;45087.16;4989041;28;20575;-53
2023/07/29 01:02:29;;;;;;;2.23;1.67;;;;;;;-143.84;65.89;45104.28;4989087;28;20446;-54
2023/07/29 01:04:59;;;;;;;8.43;1.70;;;;;;;-143.84;65.55;45092.88;4988796;28;20490;-55
2023/07/29 01:07:33;;;;;;;2.33;1.53;;;;;;;-143.84;64.76;45092.88;4989121;28;20989;-55
2023/07/29 01:10:03;;;;;;;3.07;1.70;;;;;;;-143.84;64.77;45089.06;4988938;28;20942;-55
2023/07/29 01:12:40;;;;;;;4.67;1.90;;;;;;;-143.84;64.52;45110.00;4988937;28;20452;-55
2023/07/29 01:15:14;;;;;;;1.93;1.70;;;;;;;-143.84;64.25;45115.72;4988792;28;20464;-55
2023/07/29 01:17:47;;;;;;;6.90;2.23;;;;;;;-143.84;65.67;45083.34;4989527;28;20515;-55
2023/07/29 01:20:20;;;;;;;10.43;2.30;;;;;;;-143.84;66.91;45096.66;4991893;28;20445;-55
2023/07/29 01:22:52;;;;;;;4.90;2.73;;;;;;;-143.84;66.57;45094.78;4992087;28;20924;-55
2023/07/29 01:25:20;;;;;;;7.37;2.37;;;;;;;-143.84;66.71;45089.06;4992315;28;20456;-56
2023/07/29 01:27:53;;;;;;;6.93;1.43;;;;;;;-143.84;65.21;45096.66;4992217;28;20489;-55
2023/07/29 01:30:21;;;;;;;7.77;1.87;;;;;;;-143.84;64.87;45083.34;4992116;28;20977;-55
2023/07/29 01:32:54;;;;;;;5.80;2.00;;;;;;;-143.84;64.88;45073.81;4992202;28;20508;-55
2023/07/29 01:35:27;;;;;;;4.47;2.10;;;;;;;-143.84;64.87;45071.91;4992542;28;20449;-55
2023/07/29 01:38:00;;;;;;;2.10;1.60;;;;;;;-143.84;64.44;45094.78;4992173;28;20453;-55
2023/07/29 01:40:29;;;;;;;5.87;2.30;;;;;;;-143.84;63.65;45104.28;4992065;28;20451;-55
2023/07/29 01:42:57;;;;;;;1.90;1.80;;;;;;;-143.84;64.06;45096.66;4991946;28;20947;-55
2023/07/29 01:45:25;;;;;;;1.60;1.50;;;;;;;-143.84;64.17;45090.97;4991833;28;20499;-55
2023/07/29 01:47:52;;;;;;;12.80;2.03;;;;;;;-143.84;64.21;45068.13;4991873;28;20584;-55
2023/07/29 01:50:20;;;;;;;1.93;1.43;;;;;;;-143.84;63.79;45081.44;4991997;28;20958;-55
2023/07/29 01:52:47;;;;;;;3.47;1.70;;;;;;;-143.84;63.51;45070.00;4991978;28;20441;-55
2023/07/29 01:55:14;;;;;;;2.30;1.83;;;;;;;-143.84;62.46;45108.09;4991723;28;20437;-55
2023/07/29 01:57:44;;;;;;;4.03;1.37;;;;;;;-143.84;61.42;45079.53;4991928;28;20473;-49
2023/07/29 02:00:12;;;;;;;2.17;1.73;;;;;;;-143.84;60.24;45100.47;4991565;28;20443;-53
2023/07/29 02:02:40;;;;;;;9.10;1.67;;;;;;;-143.84;60.13;45113.81;4992158;28;20445;-54
2023/07/29 02:05:07;;;;;;;4.30;1.93;;;;;;;-143.84;60.41;45087.16;4991635;28;21394;-54
2023/07/29 02:07:34;;;;;;;1.70;1.60;;;;;;;-143.84;60.01;45089.06;4991772;28;20488;-54
2023/07/29 02:10:01;;;;;;;2.10;1.47;;;;;;;-143.84;59.83;45089.06;4991668;28;20515;-53
2023/07/29 02:12:28;;;;;;;2.43;1.60;;;;;;;-143.84;59.52;45119.53;4991604;28;20503;-54
2023/07/29 02:14:57;;;;;;;5.47;1.63;;;;;;;-143.84;59.21;45071.91;4991572;28;20441;-53
2023/07/29 02:17:24;;;;;;;1.93;1.83;;;;;;;-143.84;58.67;45096.66;4991348;28;20783;-53
2023/07/29 02:19:51;;;;;;;6.30;1.10;;;;;;;-143.84;58.92;45075.72;4991160;28;20589;-53
2023/07/29 02:22:19;;;;;;;1.83;1.63;;;;;;;-143.84;59.08;45089.06;4991460;28;20948;-54
2023/07/29 02:24:46;;;;;;;2.00;1.57;;;;;;;-143.84;59.04;45075.72;4991493;28;20444;-54
2023/07/29 02:27:13;;;;;;;4.10;1.50;;;;;;;-143.84;58.92;45108.09;4990403;28;20513;-54
2023/07/29 02:29:40;;;;;;;3.10;1.73;;;;;;;-143.84;59.27;45108.09;4990517;28;20445;-54
2023/07/29 02:32:09;;;;;;;2.23;1.80;;;;;;;-143.84;58.89;45090.97;4990928;28;20942;-53
2023/07/29 02:34:36;;;;;;;1.50;1.37;;;;;;;-143.84;59.11;45064.31;4991121;28;20947;-53
2023/07/29 02:37:03;;;;;;;2.43;1.77;;;;;;;-143.84;59.27;45092.88;4991173;28;20437;-53
2023/07/29 02:39:30;;;;;;;1.57;1.47;;;;;;;-143.84;59.28;45102.38;4991126;28;20971;-54
2023/07/29 02:41:58;;;;;;;4.17;1.87;;;;;;;-143.84;59.27;45102.38;4991055;28;20504;-53
2023/07/29 02:44:25;;;;;;;1.47;1.30;;;;;;;-143.84;58.38;45075.72;4990781;28;20981;-54
2023/07/29 02:46:55;;;;;;;2.00;1.90;;;;;;;-143.84;58.39;45071.91;4991091;28;20484;-53
2023/07/29 02:49:24;;;;;;;3.33;1.67;;;;;;;-143.84;58.43;45092.88;4991062;28;20444;-54
2023/07/29 02:51:51;;;;;;;3.40;1.60;;;;;;;-143.84;58.80;45075.72;4990932;28;20449;-54
2023/07/29 02:54:18;;;;;;;1.60;1.50;;;;;;;-143.84;59.00;45070.00;4990879;28;20452;-54
2023/07/29 02:56:45;;;;;;;3.50;1.80;;;;;;;-143.84;58.87;45079.53;4990411;28;20468;-54
2023/07/29 02:59:12;;;;;;;1.63;1.53;;;;;;;-143.84;59.64;45075.72;4991054;28;20449;-53
2023/07/29 03:01:39;;;;;;;4.20;2.03;;;;;;;-143.84;59.93;45092.88;4990778;28;20531;-54
2023/07/29 03:04:06;;;;;;;4.00;1.70;;;;;;;-143.84;59.77;45100.47;4990455;28;20437;-55
2023/07/29 03:06:35;;;;;;;17.23;1.80;;;;;;;-143.84;59.38;45104.28;4990179;28;20590;-55
2023/07/29 03:09:02;;;;;;;3.33;1.53;;;;;;;-143.84;59.71;45075.72;4990596;28;20453;-55
2023/07/29 03:11:29;;;;;;;2.47;1.87;;;;;;;-143.84;60.21;45100.47;4990279;28;20504;-55
2023/07/29 03:13:56;;;;;;;1.60;1.50;;;;;;;-143.84;59.34;45102.38;4990874;28;20556;-55
2023/07/29 03:16:23;;;;;;;2.63;1.90;;;;;;;-143.84;58.43;45064.31;4990465;28;20505;-55
2023/07/29 03:18:51;;;;;;;1.73;1.63;;;;;;;-143.84;58.50;45090.97;4990258;28;20433;-55
2023/07/29 03:21:18;;;;;;;1.67;1.43;;;;;;;-143.84;58.22;45081.44;4990430;28;20449;-55
2023/07/29 03:23:46;;;;;;;2.03;1.93;;;;;;;-143.84;58.08;45102.38;4990142;28;20496;-55
2023/07/29 03:26:13;;;;;;;3.33;1.80;;;;;;;-143.84;57.85;45083.34;4990119;28;20441;-56
2023/07/29 03:28:43;;;;;;;1.30;1.20;;;;;;;-143.84;56.73;45087.16;4990082;28;20449;-55
2023/07/29 03:31:10;;;;;;;1.90;1.70;;;;;;;-143.84;56.42;45077.63;4990494;28;20499;-55
2023/07/29 03:33:38;;;;;;;2.33;2.13;;;;;;;-143.84;55.17;45079.53;4989965;28;20444;-55
2023/07/29 03:36:05;;;;;;;2.67;1.43;;;;;;;-143.84;52.87;45081.44;4989847;28;20553;-55
2023/07/29 03:38:35;;;;;;;1.40;1.30;;;;;;;-143.84;50.71;45060.50;4989011;28;20437;-55
2023/07/29 03:41:03;;;;;;;5.23;1.67;;;;;;;-143.84;49.69;45068.13;4988950;28;20456;-55
2023/07/29 03:43:30;;;;;;;2.93;1.97;;;;;;;-143.84;49.07;45075.72;4989380;28;20508;-55
2023/07/29 03:45:57;;;;;;;1.90;1.80;;;;;;;-143.84;49.71;45058.59;4989915;28;20843;-55
2023/07/29 03:48:24;;;;;;;2.07;1.87;;;;;;;-143.84;48.77;45052.88;4989906;28;20605;-55
2023/07/29 03:50:51;;;;;;;2.93;1.47;;;;;;;-143.84;44.75;45037.66;4990011;28;20442;-55
2023/07/29 03:53:18;;;;;;;4.57;1.43;;;;;;;-143.84;42.32;45018.59;4989859;28;20444;-55
2023/07/29 03:55:46;;;;;;;5.20;1.87;;;;;;;-143.84;40.14;45005.28;4989629;28;20499;-55
2023/07/29 03:58:15;;;;;;;1.67;1.57;;;;;;;-143.84;39.54;44986.22;4989474;28;20444;-55
2023/07/29 04:00:42;;;;;;;1.77;1.60;;;;;;;-143.84;38.46;44990.03;4989541;28;20514;-56
2023/07/29 04:03:09;;;;;;;1.33;1.23;;;;;;;-143.84;38.11;44957.66;4989749;28;20437;-56
2023/07/29 04:05:37;;;;;;;2.23;1.80;;;;;;;-143.84;38.52;44951.97;4989655;28;20551;-56
2023/07/29 04:08:04;;;;;;;2.27;1.47;;;;;;;-143.84;38.36;44993.84;4989816;28;20569;-56
2023/07/29 04:10:31;;;;;;;3.67;1.90;;;;;;;-143.84;38.64;44969.09;4989457;28;20515;-56
2023/07/29 04:12:58;;;;;;;7.43;2.10;;;;;;;-143.84;38.12;44963.38;4989893;28;20475;-56
2023/07/29 04:15:27;;;;;;;3.40;1.77;;;;;;;-143.84;38.14;44950.06;4989576;28;20446;-56
2023/07/29 04:17:54;;;;;;;1.50;1.40;;;;;;;-143.84;37.86;44976.72;4989321;28;20448;-56
2023/07/29 04:20:21;;;;;;;12.93;1.60;;;;;;;-143.84;37.07;44969.09;4989441;28;20442;-56
2023/07/29 04:22:48;;;;;;;5.17;1.90;;;;;;;-143.84;37.39;44953.88;4989928;28;20441;-56
2023/07/29 04:25:15;;;;;;;2.80;1.30;;;;;;;-143.84;35.29;44959.56;4989263;28;20444;-56
2023/07/29 04:27:43;;;;;;;1.70;1.23;;;;;;;-143.84;35.20;44929.09;4989352;28;20484;-56
2023/07/29 04:30:10;;;;;;;1.60;1.50;;;;;;;-143.84;33.93;44942.44;4989419;28;20993;-56
2023/07/29 04:32:39;;;;;;;3.53;1.53;;;;;;;-143.84;34.44;44942.44;4989204;28;20448;-56
2023/07/29 04:35:07;;;;;;;3.67;1.20;;;;;;;-143.84;34.07;44946.25;4989368;28;20468;-56
2023/07/29 04:37:34;;;;;;;1.77;1.20;;;;;;;-143.84;34.16;44953.88;4989401;28;20468;-55
2023/07/29 04:40:01;;;;;;;1.57;1.30;;;;;;;-143.84;33.98;44938.63;4989255;28;20441;-55
2023/07/29 04:42:28;;;;;;;2.20;1.10;;;;;;;-143.84;33.92;44951.97;4989261;28;20532;-55
2023/07/29 04:44:55;;;;;;;1.50;1.27;;;;;;;-143.84;33.27;44942.44;4989247;28;20511;-55
2023/07/29 04:47:22;;;;;;;4.60;1.87;;;;;;;-143.84;33.71;44950.06;4989009;28;20473;-55
2023/07/29 04:49:51;;;;;;;2.07;1.40;;;;;;;-143.84;33.57;44944.34;4989466;28;20445;-54
2023/07/29 04:52:19;;;;;;;1.57;1.40;;;;;;;-143.84;33.72;44950.06;4989799;28;20449;-54
2023/07/29 04:54:46;;;;;;;3.23;1.27;;;;;;;-143.84;33.82;44934.81;4992988;28;20540;-54
2023/07/29 04:57:13;;;;;;;4.60;1.20;;;;;;;-143.84;33.61;44948.16;4993027;28;20452;-54
2023/07/29 04:59:40;;;;;;;2.37;1.47;;;;;;;-143.84;34.02;44910.06;4992449;28;20433;-54
2023/07/29 05:02:07;;;;;;;3.27;1.80;;;;;;;-143.84;34.17;44965.28;4991959;28;20864;-54
2023/07/29 05:04:34;;;;;;;4.03;1.10;;;;;;;-143.84;34.29;44927.19;4992469;28;20437;-54
2023/07/29 05:07:03;;;;;;;1.77;1.37;;;;;;;-143.84;34.32;44959.56;4991933;28;20488;-54
2023/07/29 05:09:30;;;;;;;3.30;1.23;;;;;;;-143.84;34.31;44955.75;4992778;28;20532;-54
2023/07/29 05:11:57;;;;;;;1.57;1.30;;;;;;;-143.84;34.64;44972.91;4992735;28;20515;-55
2023/07/29 05:14:24;;;;;;;2.80;1.20;;;;;;;-143.84;34.62;44963.38;4992609;28;20499;-54
2023/07/29 05:16:51;;;;;;;1.53;1.43;;;;;;;-143.84;34.89;44946.25;4992501;28;20444;-54
2023/07/29 05:19:19;;;;;;;5.23;1.30;;;;;;;-143.84;34.43;44936.72;4992415;28;20441;-54
2023/07/29 05:21:46;;;;;;;3.97;1.40;;;;;;;-143.84;34.58;44938.63;4992143;28;20516;-54
2023/07/29 05:24:14;;;;;;;1.90;1.27;;;;;;;-143.84;34.44;44921.50;4992470;28;20935;-54
2023/07/29 05:26:41;;;;;;;5.50;1.53;;;;;;;-143.84;34.57;44913.88;4992384;28;21017;-54
2023/07/29 05:29:08;;;;;;;6.40;1.20;;;;;;;-143.84;34.31;44950.06;4992491;28;21383;-54
2023/07/29 05:31:35;;;;;;;5.53;1.80;;;;;;;-143.84;34.14;44965.28;4992543;28;20875;-54
2023/07/29 05:34:02;;;;;;;1.60;1.30;;;;;;;-143.84;34.40;44942.44;4992483;28;20949;-54
2023/07/29 05:36:29;;;;;;;3.70;1.30;;;;;;;-143.84;34.00;44944.34;4992155;28;20468;-54
2023/07/29 05:38:56;;;;;;;1.60;1.50;;;;;;;-143.84;34.15;44898.66;4992209;28;20508;-53
2023/07/29 05:41:27;;;;;;;2.10;1.77;;;;;;;-143.84;33.66;44915.78;4992091;28;20503;-53
2023/07/29 05:43:54;;;;;;;1.53;1.20;;;;;;;-143.84;33.17;44917.69;4992068;28;20879;-54
2023/07/29 05:46:21;;;;;;;1.43;1.30;;;;;;;-143.84;33.21;44908.16;4992109;28;20457;-54
2023/07/29 05:48:48;;;;;;;10.50;1.50;;;;;;;-143.84;33.06;44910.06;4991206;28;20496;-54
2023/07/29 05:51:15;;;;;;;11.33;1.47;;;;;;;-143.84;33.73;44904.34;4991219;28;20445;-54
2023/07/29 05:53:42;;;;;;;5.23;1.60;;;;;;;-143.84;33.72;44898.66;4991130;28;20444;-53
2023/07/29 05:56:10;;;;;;;6.83;1.70;;;;;;;-143.84;33.08;44896.75;4991815;28;20444;-53
2023/07/29 05:58:39;;;;;;;2.33;1.43;;;;;;;-143.84;32.29;44921.50;4991919;28;20441;-53
2023/07/29 06:01:06;;;;;;;3.50;1.43;;;;;;;-143.84;32.14;44923.41;4991722;28;20442;-53
2023/07/29 06:03:33;;;;;;;4.47;1.40;;;;;;;-143.84;31.85;44896.75;4991314;28;21048;-53
2023/07/29 06:06:00;;;;;;;3.53;1.80;;;;;;;-143.84;31.94;44889.13;4991217;28;20558;-54
2023/07/29 06:08:29;;;;;;;3.00;1.90;;;;;;;-143.84;31.83;44902.44;4991936;28;20496;-57
2023/07/29 06:10:56;;;;;;;3.03;2.00;;;;;;;-143.84;31.78;44885.31;4991763;28;20544;-57
2023/07/29 06:13:23;;;;;;;6.70;1.20;;;;;;;-143.84;31.19;44904.34;4991906;28;20500;-57
2023/07/29 06:15:52;;;;;;;7.50;1.73;;;;;;;-143.84;31.57;44915.78;4991932;28;20472;-57
2023/07/29 06:18:19;;;;;;;1.70;1.60;;;;;;;-143.84;31.18;44911.97;4992021;28;20441;-57
2023/07/29 06:20:46;;;;;;;4.90;1.33;;;;;;;-143.84;31.69;44906.25;4991661;28;20449;-57
2023/07/29 06:23:13;;;;;;;2.43;1.27;;;;;;;-143.84;30.87;44877.69;4991815;28;20456;-57
2023/07/29 06:25:40;;;;;;;3.50;1.50;;;;;;;-143.84;31.38;44898.66;4992032;28;20875;-57
2023/07/29 06:28:07;;;;;;;3.40;1.60;;;;;;;-143.84;31.34;44891.03;4991768;28;20485;-57
2023/07/29 06:30:34;;;;;;;2.43;1.80;;;;;;;-143.84;31.35;44908.16;4991790;28;20472;-57
2023/07/29 06:33:03;;;;;;;2.17;1.43;;;;;;;-143.84;30.97;44873.88;4991461;28;20445;-58
2023/07/29 06:35:30;;;;;;;12.17;1.90;;;;;;;-143.84;31.07;44873.88;4991533;28;20455;-58
2023/07/29 06:37:58;;;;;;;2.33;1.50;;;;;;;-143.84;31.03;44881.50;4991528;28;20441;-58
2023/07/29 06:40:25;;;;;;;2.77;1.60;;;;;;;-143.84;31.12;44868.19;4991432;28;20446;-58
2023/07/29 06:42:52;;;;;;;1.63;1.50;;;;;;;-143.84;31.26;44906.25;4991177;28;20449;-58
2023/07/29 06:45:19;;;;;;;4.07;1.33;;;;;;;-143.84;30.76;44875.78;4991239;28;20452;-57
2023/07/29 06:47:46;;;;;;;4.73;1.60;;;;;;;-143.84;30.63;44879.59;4991304;28;20926;-57
2023/07/29 06:50:15;;;;;;;7.50;2.00;;;;;;;-143.84;32.07;44904.34;4991150;28;20433;-58
2023/07/29 06:52:42;;;;;;;5.50;1.80;;;;;;;-143.84;30.90;44883.41;4990980;28;20503;-58
2023/07/29 06:55:09;;;;;;;2.60;2.40;;;;;;;-143.84;30.84;44873.88;4991404;28;20871;-58
2023/07/29 06:57:36;;;;;;;4.27;2.03;;;;;;;-143.84;30.99;44879.59;4991087;28;20433;-54
2023/07/29 07:00:04;;;;;;;5.30;1.80;;;;;;;-143.84;31.43;44873.88;4990613;28;20445;-54
2023/07/29 07:02:31;;;;;;;2.53;1.60;;;;;;;-143.84;30.51;44885.31;4990396;28;20492;-54
2023/07/29 07:04:58;;;;;;;5.37;2.43;;;;;;;-143.84;31.46;44885.31;4990315;28;21148;-54
2023/07/29 07:07:27;;;;;;;5.17;2.50;;;;;;;-143.84;31.16;44885.31;4990330;28;21021;-54
2023/07/29 07:09:55;;;;;;;3.70;2.27;;;;;;;-143.84;31.72;44885.31;4990768;28;20437;-54
2023/07/29 07:12:22;;;;;;;8.40;2.67;;;;;;;-143.84;32.26;44900.53;4990400;28;20441;-54
2023/07/29 07:14:49;;;;;;;4.73;2.50;;;;;;;-143.84;32.77;44906.25;4989576;28;20449;-54
2023/07/29 07:17:16;;;;;;;5.90;2.47;;;;;;;-143.84;32.58;44877.69;4989677;28;20449;-54
2023/07/29 07:19:43;;;;;;;7.03;2.60;;;;;;;-143.84;31.28;44887.22;4989552;28;20435;-54
2023/07/29 07:22:10;;;;;;;11.00;2.57;;;;;;;-143.84;31.65;44877.69;4989936;28;20492;-53
2023/07/29 07:24:39;;;;;;;8.63;2.17;;;;;;;-143.84;30.46;44870.09;4989745;28;20437;-53
2023/07/29 07:27:06;;;;;;;3.77;2.57;;;;;;;-143.84;31.78;44889.13;4990428;28;20438;-53
2023/07/29 07:29:33;;;;;;;8.50;2.70;;;;;;;-143.84;31.32;44883.41;4990289;28;20476;-54
2023/07/29 07:32:01;;;;;;;14.20;2.97;;;;;;;-143.84;31.79;44908.16;4990470;28;21098;-57
2023/07/29 07:34:28;;;;;;;8.90;2.50;;;;;;;-143.84;33.65;44866.28;4990590;28;20535;-57
2023/07/29 07:36:55;;;;;;;47.33;7.77;;;;;;;-143.84;32.60;44915.78;4990440;28;20476;-57
2023/07/29 07:39:22;;;;;;;26.00;5.40;;;;;;;-143.84;32.44;44887.22;4990584;28;20531;-57
2023/07/29 07:41:51;;;;;;;114.73;13.00;;;;;;;-143.84;33.60;44881.50;4990523;28;20947;-49
2023/07/29 07:44:19;;;;;;;31.10;3.97;;;;;;;-143.84;34.19;44917.69;4989792;28;20445;-55
2023/07/29 07:46:46;;;;;;;4.20;2.60;;;;;;;-143.84;30.80;44883.41;4989711;28;20476;-55
2023/07/29 07:49:13;;;;;;;6.90;2.00;;;;;;;-143.84;31.19;44906.25;4989761;28;20558;-55
2023/07/29 07:51:41;;;;;;;8.03;2.47;;;;;;;-143.84;32.61;44919.59;4990243;28;20471;-53
2023/07/29 07:54:08;;;;;;;7.53;2.47;;;;;;;-143.84;33.56;44849.13;4989750;28;20508;-53
2023/07/29 07:56:35;;;;;;;4.70;2.43;;;;;;;-143.84;33.24;44894.84;4989783;28;20445;-53
2023/07/29 07:59:03;;;;;;;9.23;2.50;;;;;;;-143.84;32.07;44879.59;4990040;28;20445;-57
2023/07/29 08:01:36;;;;;;;6.97;2.80;;;;;;;-143.84;33.77;44892.94;4990038;28;20853;-57
2023/07/29 08:04:04;;;;;;;7.67;3.27;;;;;;;-143.84;35.10;44936.72;4990173;28;20853;-57
2023/07/29 08:06:31;;;;;;;7.00;3.47;;;;;;;-143.84;34.61;44915.78;4989844;28;20543;-57
2023/07/29 08:08:58;;;;;;;9.30;3.63;;;;;;;-143.84;35.27;44919.59;4989781;28;20998;-57
2023/07/29 08:11:26;;;;;;;14.93;3.87;;;;;;;-143.84;35.93;44911.97;4990101;28;20500;-57
2023/07/29 08:13:53;;;;;;;10.50;3.67;;;;;;;-143.84;36.58;44932.91;4989874;28;20511;-57
2023/07/29 08:16:21;;;;;;;5.37;3.47;;;;;;;-143.84;36.45;44896.75;4989667;28;20954;-53
2023/07/29 08:18:48;;;;;;;5.40;3.93;;;;;;;-143.84;35.91;44902.44;4989506;28;21021;-49
2023/07/29 08:21:15;;;;;;;15.93;4.30;;;;;;;-143.84;35.75;44902.44;4989670;28;20523;-57
2023/07/29 08:23:43;;;;;;;6.90;5.10;;;;;;;-143.84;35.47;44915.78;4989537;28;20441;-53
2023/07/29 08:26:10;;;;;;;155.70;15.37;;;;;;;-143.84;36.03;44919.59;4989923;28;20527;-53
2023/07/29 08:28:38;;;;;;;49.23;10.30;;;;;;;-143.84;35.11;44923.41;4993456;28;20520;-53
2023/07/29 08:31:05;;;;;;;76.30;8.33;;;;;;;-143.84;37.29;44877.69;4993129;28;20440;-53
2023/07/29 08:33:34;;;;;;;68.70;11.37;;;;;;;-143.84;36.02;44906.25;4993537;28;20471;-53
2023/07/29 08:36:02;;;;;;;27.03;5.77;;;;;;;-143.84;36.56;44873.88;4993112;28;20488;-53
2023/07/29 08:38:29;;;;;;;7.50;5.10;;;;;;;-143.84;35.36;44862.47;4993536;28;20445;-55
2023/07/29 08:41:04;;;;;;;17.23;5.83;;;;;;;-143.84;36.42;44908.16;4993226;28;20507;-55
2023/07/29 08:43:33;;;;;;;15.43;6.10;;;;;;;-143.84;35.02;44883.41;4993330;28;20875;-55
2023/07/29 08:46:00;;;;;;;4.77;4.37;;;;;;;-143.84;36.68;44902.44;4992838;28;20499;-54
2023/07/29 08:48:38;;;;;;;11.30;4.97;;;;;;;-143.84;37.18;44870.09;4993083;28;20551;-54
2023/07/29 08:51:06;;;;;;;4.33;3.93;;;;;;;-143.84;36.99;44902.44;4993053;28;20955;-49
2023/07/29 08:53:34;;;;;;;6.43;3.07;;;;;;;-143.84;35.93;44896.75;4993005;28;20531;-49
2023/07/29 08:56:02;;;;;;;3.17;2.37;;;;;;;-143.84;37.95;44900.53;4992703;28;20843;-49
2023/07/29 08:58:30;;;;;;;7.83;2.70;;;;;;;-143.84;36.74;44915.78;4992630;28;20438;-50
2023/07/29 09:00:57;;;;;;;8.83;2.60;;;;;;;-143.84;37.73;44889.13;4992411;28;20527;-50
2023/07/29 09:03:24;;;;;;;9.23;2.80;;;;;;;-143.84;37.27;44892.94;4992745;28;20449;-53
2023/07/29 09:05:56;;;;;;;3.43;2.50;;;;;;;-143.84;37.28;44917.69;4992538;28;20853;-53
2023/07/29 09:08:26;;;;;;;7.70;2.80;;;;;;;-143.84;37.48;44892.94;4992587;28;20450;-54
2023/07/29 09:10:54;;;;;;;7.33;2.77;;;;;;;-143.84;37.18;44917.69;4992694;28;20444;-53
2023/07/29 09:13:22;;;;;;;4.73;2.47;;;;;;;-143.84;38.08;44917.69;4992479;28;20441;-53
2023/07/29 09:15:49;;;;;;;4.03;3.07;;;;;;;-143.84;39.61;44934.81;4992530;28;21014;-55
2023/07/29 09:18:18;;;;;;;7.23;2.90;;;;;;;-143.84;39.82;44931.00;4992523;28;20495;-55
2023/07/29 09:20:47;;;;;;;3.87;2.50;;;;;;;-143.84;41.47;44953.88;4992290;28;20460;-54
2023/07/29 09:23:16;;;;;;;2.10;2.00;;;;;;;-143.84;42.73;44951.97;4992491;28;20441;-54
2023/07/29 09:25:43;;;;;;;2.27;2.07;;;;;;;-143.84;44.37;44934.81;4992410;28;20565;-54
2023/07/29 09:28:12;;;;;;;3.63;2.63;;;;;;;-143.84;43.45;44974.81;4992112;28;20457;-54
2023/07/29 09:30:40;;;;;;;2.13;1.80;;;;;;;-143.84;45.12;44946.25;4992440;28;20443;-54
2023/07/29 09:33:07;;;;;;;3.13;2.03;;;;;;;-143.84;42.59;44950.06;4992593;28;20506;-57
2023/07/29 09:35:36;;;;;;;1.67;1.57;;;;;;;-143.84;42.09;44953.88;4992859;28;20474;-57
2023/07/29 09:38:03;;;;;;;1.77;1.67;;;;;;;-143.84;43.29;44921.50;4991901;28;20476;-57
2023/07/29 09:40:37;;;;;;;2.90;1.80;;;;;;;-143.84;43.71;44948.16;4992428;28;20883;-57
2023/07/29 09:43:05;;;;;;;8.10;2.00;;;;;;;-143.84;43.55;44948.16;4992323;28;20968;-57
2023/07/29 09:45:35;;;;;;;1.70;1.60;;;;;;;-143.84;45.28;44971.00;4992372;28;20574;-57
2023/07/29 09:48:04;;;;;;;2.30;1.90;;;;;;;-143.84;44.78;44972.91;4992264;28;20481;-53
2023/07/29 09:50:31;;;;;;;2.17;1.97;;;;;;;-143.84;43.09;44976.72;4991798;28;20559;-53
2023/07/29 09:52:59;;;;;;;2.80;1.97;;;;;;;-143.84;46.98;44940.53;4992106;28;20888;-53
2023/07/29 09:55:27;;;;;;;1.83;1.67;;;;;;;-143.84;44.84;44944.34;4991886;28;20525;-53
2023/07/29 09:58:00;;;;;;;2.43;1.90;;;;;;;-143.84;46.21;44961.47;4992060;28;21044;-57
2023/07/29 10:00:28;;;;;;;2.00;1.80;;;;;;;-143.84;46.35;44974.81;4992181;28;20958;-55
2023/07/29 10:02:56;;;;;;;3.20;2.20;;;;;;;-143.84;47.55;44969.09;4991664;28;20541;-53
2023/07/29 10:05:24;;;;;;;1.50;1.40;;;;;;;-143.84;45.38;44971.00;4991925;28;20491;-57
2023/07/29 10:07:51;;;;;;;2.33;1.60;;;;;;;-143.84;49.57;44957.66;4992106;28;20446;-57
2023/07/29 10:10:19;;;;;;;1.80;1.70;;;;;;;-143.84;47.66;44961.47;4991429;28;20618;-53
2023/07/29 10:12:47;;;;;;;2.80;2.03;;;;;;;-143.84;47.05;44942.44;4991627;28;20860;-53
2023/07/29 10:15:15;;;;;;;6.00;1.53;;;;;;;-143.84;49.56;44931.00;4991484;28;20496;-53
2023/07/29 10:17:42;;;;;;;2.90;1.70;;;;;;;-143.84;51.60;44971.00;4991464;28;20451;-53
2023/07/29 10:20:11;;;;;;;1.90;1.43;;;;;;;-143.84;53.18;44951.97;4991178;28;20511;-53
2023/07/29 10:22:39;;;;;;;2.80;1.70;;;;;;;-143.84;53.72;44969.09;4991357;28;20498;-53
2023/07/29 10:25:09;;;;;;;3.00;2.00;;;;;;;-143.84;52.65;44974.81;4990722;28;20453;-54
2023/07/29 10:27:44;;;;;;;7.70;2.50;;;;;;;-143.84;57.54;44957.66;4991042;28;20454;-57
2023/07/29 10:30:16;;;;;;;1.97;1.87;;;;;;;-143.84;54.26;44955.75;4990940;28;20519;-57
2023/07/29 10:32:45;;;;;;;1.67;1.57;;;;;;;-143.84;50.09;44980.53;4991103;28;20450;-53
2023/07/29 10:35:13;;;;;;;2.10;1.83;;;;;;;-143.84;51.89;44965.28;4991250;28;21007;-53
2023/07/29 10:37:41;;;;;;;2.90;2.00;;;;;;;-143.84;55.53;44946.25;4991190;28;20437;-53
2023/07/29 10:40:10;;;;;;;13.07;1.70;;;;;;;-143.84;51.42;44976.72;4990899;28;20851;-52
2023/07/29 10:42:37;;;;;;;3.00;1.77;;;;;;;-143.84;49.21;44955.75;4990952;28;20470;-53
2023/07/29 10:45:23;;;;;;;2.33;1.87;;;;;;;-143.84;49.54;44953.88;4990886;28;20451;-53
2023/07/29 10:47:50;;;;;;;3.10;1.47;;;;;;;-143.84;48.53;44961.47;4991161;28;20452;-53
2023/07/29 10:50:22;;;;;;;2.40;1.70;;;;;;;-143.84;47.68;44950.06;4990747;28;20494;-52
2023/07/29 10:52:53;;;;;;;2.13;1.93;;;;;;;-143.84;42.30;44925.31;4990684;28;20957;-53
2023/07/29 10:55:28;;;;;;;1.90;1.63;;;;;;;-143.84;45.65;44948.16;4990625;28;20443;-52
2023/07/29 10:58:10;;;;;;;4.70;1.90;;;;;;;-143.84;48.51;44984.31;4990586;28;20537;-53
2023/07/29 11:00:39;;;;;;;2.80;2.40;;;;;;;-143.84;50.10;44976.72;4990730;28;20441;-52
2023/07/29 11:03:07;;;;;;;5.70;2.03;;;;;;;-143.84;48.87;44978.63;4990726;28;20456;-52
2023/07/29 11:05:49;;;;;;;2.97;1.50;;;;;;;-143.84;49.68;44974.81;4990514;28;20496;-52
2023/07/29 11:08:21;;;;;;;2.50;2.30;;;;;;;-143.84;56.14;44988.13;4990391;28;20439;-52
2023/07/29 11:11:04;;;;;;;2.30;1.90;;;;;;;-143.84;55.85;44982.41;4990191;28;20481;-52
2023/07/29 11:13:32;;;;;;;2.70;2.00;;;;;;;-143.84;54.22;44991.94;4990343;28;20444;-52
2023/07/29 11:16:01;;;;;;;2.40;2.20;;;;;;;-143.84;53.17;44980.53;4990413;28;20815;-52
2023/07/29 11:18:30;;;;;;;6.10;1.90;;;;;;;-143.84;53.86;44988.13;4990647;28;20450;-53
2023/07/29 11:20:58;;;;;;;3.93;2.27;;;;;;;-143.84;54.55;44993.84;4990177;28;20528;-52